sensor_id;sensor_type;location;lat;lon;timestamp;pressure;altitude;pressure_sealevel;temperature;humidity
8061;BME280;4073;42.626;25.386;2023-02-12T00:01:00;98031.34;;;-0.36;64.23
8061;BME280;4073;42.626;25.386;2023-02-12T00:03:26;98037.75;;;-0.38;63.86
8061;BME280;4073;42.626;25.386;2023-02-12T00:05:51;98031.59;;;-0.45;64.17
8061;BME280;4073;42.626;25.386;2023-02-12T00:08:17;98028.78;;;-0.44;64.05
8061;BME280;4073;42.626;25.386;2023-02-12T00:10:43;98027.16;;;-0.45;63.39
8061;BME280;4073;42.626;25.386;2023-02-12T00:13:09;98039.75;;;-0.55;64.20
8061;BME280;4073;42.626;25.386;2023-02-12T00:15:39;98036.66;;;-0.58;64.23
8061;BME280;4073;42.626;25.386;2023-02-12T00:18:05;98020.28;;;-0.75;64.41
8061;BME280;4073;42.626;25.386;2023-02-12T00:20:31;98029.72;;;-0.66;63.97
8061;BME280;4073;42.626;25.386;2023-02-12T00:22:56;98033.69;;;-0.70;64.27
8061;BME280;4073;42.626;25.386;2023-02-12T00:25:22;98039.94;;;-0.71;64.03
8061;BME280;4073;42.626;25.386;2023-02-12T00:27:47;98038.13;;;-0.70;64.57
8061;BME280;4073;42.626;25.386;2023-02-12T00:30:13;98040.41;;;-0.67;65.58
8061;BME280;4073;42.626;25.386;2023-02-12T00:32:38;98044.47;;;-0.65;66.27
8061;BME280;4073;42.626;25.386;2023-02-12T00:35:05;98028.50;;;-0.78;67.32
8061;BME280;4073;42.626;25.386;2023-02-12T00:37:30;98027.63;;;-0.70;67.42
8061;BME280;4073;42.626;25.386;2023-02-12T00:39:56;98024.16;;;-0.71;67.37
8061;BME280;4073;42.626;25.386;2023-02-12T00:42:21;98033.22;;;-0.73;67.06
8061;BME280;4073;42.626;25.386;2023-02-12T00:44:47;98030.88;;;-0.68;67.22
8061;BME280;4073;42.626;25.386;2023-02-12T00:47:12;98030.88;;;-0.68;67.37
8061;BME280;4073;42.626;25.386;2023-02-12T00:49:37;98028.72;;;-0.65;67.58
8061;BME280;4073;42.626;25.386;2023-02-12T00:52:04;98034.44;;;-0.61;67.81
8061;BME280;4073;42.626;25.386;2023-02-12T00:54:29;98028.72;;;-0.65;69.19
8061;BME280;4073;42.626;25.386;2023-02-12T00:56:56;98010.69;;;-0.68;69.40
8061;BME280;4073;42.626;25.386;2023-02-12T00:59:25;98012.41;;;-0.60;69.52
8061;BME280;4073;42.626;25.386;2023-02-12T01:01:51;98004.44;;;-0.67;70.22
8061;BME280;4073;42.626;25.386;2023-02-12T01:04:18;97993.75;;;-0.65;70.26
8061;BME280;4073;42.626;25.386;2023-02-12T01:06:44;97995.84;;;-0.61;70.25
8061;BME280;4073;42.626;25.386;2023-02-12T01:09:10;97987.94;;;-0.61;70.84
8061;BME280;4073;42.626;25.386;2023-02-12T01:11:36;97991.66;;;-0.55;71.69
8061;BME280;4073;42.626;25.386;2023-02-12T01:14:02;97982.69;;;-0.61;70.50
8061;BME280;4073;42.626;25.386;2023-02-12T01:16:28;97990.28;;;-0.51;70.80
8061;BME280;4073;42.626;25.386;2023-02-12T01:18:56;97979.78;;;-0.51;70.94
8061;BME280;4073;42.626;25.386;2023-02-12T01:21:26;97980.91;;;-0.46;70.05
8061;BME280;4073;42.626;25.386;2023-02-12T01:23:53;97970.00;;;-0.43;70.40
8061;BME280;4073;42.626;25.386;2023-02-12T01:26:20;97957.31;;;-0.39;70.69
8061;BME280;4073;42.626;25.386;2023-02-12T01:28:51;97963.75;;;-0.42;71.18
8061;BME280;4073;42.626;25.386;2023-02-12T01:31:23;97963.41;;;-0.39;71.08
8061;BME280;4073;42.626;25.386;2023-02-12T01:33:50;97964.75;;;-0.43;70.88
8061;BME280;4073;42.626;25.386;2023-02-12T01:36:16;97958.88;;;-0.59;69.04
8061;BME280;4073;42.626;25.386;2023-02-12T01:38:42;97966.59;;;-0.58;68.40
8061;BME280;4073;42.626;25.386;2023-02-12T01:41:19;97961.78;;;-0.54;67.39
8061;BME280;4073;42.626;25.386;2023-02-12T01:44:05;97957.97;;;-0.52;67.55
8061;BME280;4073;42.626;25.386;2023-02-12T01:46:31;97959.00;;;-0.53;69.01
8061;BME280;4073;42.626;25.386;2023-02-12T01:48:56;97962.88;;;-0.49;68.36
8061;BME280;4073;42.626;25.386;2023-02-12T01:51:23;97964.13;;;-0.45;68.43
8061;BME280;4073;42.626;25.386;2023-02-12T01:53:52;97968.72;;;-0.47;68.11
8061;BME280;4073;42.626;25.386;2023-02-12T01:56:19;97962.88;;;-0.49;68.53
8061;BME280;4073;42.626;25.386;2023-02-12T01:58:46;97961.63;;;-0.53;68.70
8061;BME280;4073;42.626;25.386;2023-02-12T02:01:16;97961.50;;;-0.59;67.87
8061;BME280;4073;42.626;25.386;2023-02-12T02:03:45;97948.13;;;-0.64;67.49
8061;BME280;4073;42.626;25.386;2023-02-12T02:06:19;97964.78;;;-0.72;67.43
8061;BME280;4073;42.626;25.386;2023-02-12T02:08:45;97967.06;;;-0.69;67.40
8061;BME280;4073;42.626;25.386;2023-02-12T02:11:12;97961.06;;;-0.77;68.28
8061;BME280;4073;42.626;25.386;2023-02-12T02:13:56;97947.06;;;-0.70;69.10
8061;BME280;4073;42.626;25.386;2023-02-12T02:16:45;97949.09;;;-0.65;68.86
8061;BME280;4073;42.626;25.386;2023-02-12T02:19:23;97944.84;;;-0.66;68.90
8061;BME280;4073;42.626;25.386;2023-02-12T02:22:01;97927.91;;;-0.64;68.65
8061;BME280;4073;42.626;25.386;2023-02-12T02:24:56;97934.16;;;-0.65;69.19
8061;BME280;4073;42.626;25.386;2023-02-12T02:30:45;97939.97;;;-0.69;69.36
8061;BME280;4073;42.626;25.386;2023-02-12T02:36:13;97944.97;;;-0.89;70.50
8061;BME280;4073;42.626;25.386;2023-02-12T02:43:45;97939.97;;;-0.69;69.36
8061;BME280;4073;42.626;25.386;2023-02-12T02:49:23;97940.50;;;-0.59;67.69
8061;BME280;4073;42.626;25.386;2023-02-12T02:52:03;97935.25;;;-0.59;67.16
8061;BME280;4073;42.626;25.386;2023-02-12T02:54:38;97946.22;;;-0.56;66.73
8061;BME280;4073;42.626;25.386;2023-02-12T02:57:28;97936.97;;;-0.52;66.33
8061;BME280;4073;42.626;25.386;2023-02-12T03:00:15;97937.31;;;-0.55;66.89
8061;BME280;4073;42.626;25.386;2023-02-12T03:02:48;97936.13;;;-0.52;67.14
8061;BME280;4073;42.626;25.386;2023-02-12T03:05:25;97930.53;;;-0.64;67.69
8061;BME280;4073;42.626;25.386;2023-02-12T03:07:56;97940.31;;;-0.58;67.43
8061;BME280;4073;42.626;25.386;2023-02-12T03:10:46;97937.16;;;-0.53;68.11
8061;BME280;4073;42.626;25.386;2023-02-12T03:13:30;97936.97;;;-0.52;68.07
8061;BME280;4073;42.626;25.386;2023-02-12T03:18:51;97939.22;;;-0.49;67.76
8061;BME280;4073;42.626;25.386;2023-02-12T03:21:23;97930.88;;;-0.52;67.52
8061;BME280;4073;42.626;25.386;2023-02-12T03:26:45;97935.06;;;-0.43;66.71
8061;BME280;4073;42.626;25.386;2023-02-12T03:29:11;97923.72;;;-0.44;66.98
8061;BME280;4073;42.626;25.386;2023-02-12T03:37:05;97923.72;;;-0.58;68.17
8061;BME280;4073;42.626;25.386;2023-02-12T03:39:43;97934.59;;;-0.47;67.51
8061;BME280;4073;42.626;25.386;2023-02-12T03:42:28;97923.72;;;-0.44;67.76
8061;BME280;4073;42.626;25.386;2023-02-12T03:47:48;97935.47;;;-0.25;67.46
8061;BME280;4073;42.626;25.386;2023-02-12T03:50:16;97926.56;;;-0.24;68.52
8061;BME280;4073;42.626;25.386;2023-02-12T03:52:45;97938.91;;;-0.25;68.56
8061;BME280;4073;42.626;25.386;2023-02-12T03:55:11;97923.22;;;-0.33;69.24
8061;BME280;4073;42.626;25.386;2023-02-12T03:57:43;97917.38;;;-0.35;68.77
8061;BME280;4073;42.626;25.386;2023-02-12T04:00:14;97927.88;;;-0.35;69.24
8061;BME280;4073;42.626;25.386;2023-02-12T04:02:41;97911.75;;;-0.32;69.54
8061;BME280;4073;42.626;25.386;2023-02-12T04:05:08;97929.72;;;-0.14;68.75
8061;BME280;4073;42.626;25.386;2023-02-12T04:07:39;97916.13;;;-0.18;67.90
8061;BME280;4073;42.626;25.386;2023-02-12T04:10:05;97932.97;;;-0.12;68.27
8061;BME280;4073;42.626;25.386;2023-02-12T04:12:59;97936.84;;;-0.08;68.58
8061;BME280;4073;42.626;25.386;2023-02-12T04:16:15;97932.06;;;-0.05;68.57
8061;BME280;4073;42.626;25.386;2023-02-12T04:18:41;97930.50;;;0.01;68.22
8061;BME280;4073;42.626;25.386;2023-02-12T04:38:03;97940.56;;;0.19;64.99
8061;BME280;4073;42.626;25.386;2023-02-12T04:40:30;97936.31;;;0.18;65.62
8061;BME280;4073;42.626;25.386;2023-02-12T04:42:56;97938.06;;;0.11;67.25
8061;BME280;4073;42.626;25.386;2023-02-12T04:45:25;97936.50;;;0.16;67.02
8061;BME280;4073;42.626;25.386;2023-02-12T04:47:51;97938.56;;;0.21;66.56
8061;BME280;4073;42.626;25.386;2023-02-12T04:50:17;97938.75;;;0.19;67.73
8061;BME280;4073;42.626;25.386;2023-02-12T04:52:43;97939.31;;;0.15;67.69
8061;BME280;4073;42.626;25.386;2023-02-12T04:55:09;97947.47;;;0.20;67.74
8061;BME280;4073;42.626;25.386;2023-02-12T04:57:35;97949.53;;;0.24;66.70
8061;BME280;4073;42.626;25.386;2023-02-12T05:00:00;97962.41;;;0.19;66.58
8061;BME280;4073;42.626;25.386;2023-02-12T05:02:26;97956.53;;;0.17;68.11
8061;BME280;4073;42.626;25.386;2023-02-12T05:04:51;97950.38;;;0.10;68.50
8061;BME280;4073;42.626;25.386;2023-02-12T05:07:16;97957.47;;;0.10;68.28
8061;BME280;4073;42.626;25.386;2023-02-12T05:09:42;97953.09;;;0.17;67.59
8061;BME280;4073;42.626;25.386;2023-02-12T05:12:08;97971.53;;;0.02;67.92
8061;BME280;4073;42.626;25.386;2023-02-12T05:14:33;97977.69;;;0.09;68.33
8061;BME280;4073;42.626;25.386;2023-02-12T05:16:58;97975.59;;;0.04;69.08
8061;BME280;4073;42.626;25.386;2023-02-12T05:19:24;97967.91;;;0.03;69.31
8061;BME280;4073;42.626;25.386;2023-02-12T05:21:51;97966.47;;;0.00;68.93
8061;BME280;4073;42.626;25.386;2023-02-12T05:24:16;97976.44;;;0.05;69.03
8061;BME280;4073;42.626;25.386;2023-02-12T05:26:42;97987.69;;;-0.01;69.39
8061;BME280;4073;42.626;25.386;2023-02-12T05:29:07;97980.44;;;0.01;68.60
8061;BME280;4073;42.626;25.386;2023-02-12T05:31:33;97976.28;;;-0.08;69.18
8061;BME280;4073;42.626;25.386;2023-02-12T05:33:59;97992.75;;;0.00;69.36
8061;BME280;4073;42.626;25.386;2023-02-12T05:36:24;97999.03;;;-0.01;69.07
8061;BME280;4073;42.626;25.386;2023-02-12T05:38:51;98007.28;;;-0.04;69.94
8061;BME280;4073;42.626;25.386;2023-02-12T05:41:19;98004.09;;;0.01;69.79
8061;BME280;4073;42.626;25.386;2023-02-12T05:43:45;98009.41;;;0.08;69.20
8061;BME280;4073;42.626;25.386;2023-02-12T05:46:12;98010.28;;;0.15;68.34
8061;BME280;4073;42.626;25.386;2023-02-12T05:48:38;98013.22;;;0.05;67.60
8061;BME280;4073;42.626;25.386;2023-02-12T05:51:05;98017.38;;;0.14;67.35
8061;BME280;4073;42.626;25.386;2023-02-12T05:53:31;98038.50;;;0.21;67.72
8061;BME280;4073;42.626;25.386;2023-02-12T05:56:13;98042.19;;;0.26;67.17
8061;BME280;4073;42.626;25.386;2023-02-12T05:58:41;98039.84;;;0.31;66.48
8061;BME280;4073;42.626;25.386;2023-02-12T06:01:14;98039.00;;;0.31;67.51
8061;BME280;4073;42.626;25.386;2023-02-12T06:03:40;98036.63;;;0.36;67.84
8061;BME280;4073;42.626;25.386;2023-02-12T06:06:06;98027.84;;;0.29;67.44
8061;BME280;4073;42.626;25.386;2023-02-12T06:08:32;98038.69;;;0.40;66.66
8061;BME280;4073;42.626;25.386;2023-02-12T06:10:59;98034.03;;;0.57;66.18
8061;BME280;4073;42.626;25.386;2023-02-12T06:13:26;98031.06;;;0.66;63.81
8061;BME280;4073;42.626;25.386;2023-02-12T06:15:51;98037.84;;;0.75;62.83
8061;BME280;4073;42.626;25.386;2023-02-12T06:18:17;98038.75;;;0.89;62.09
8061;BME280;4073;42.626;25.386;2023-02-12T06:20:42;98039.69;;;1.02;60.56
8061;BME280;4073;42.626;25.386;2023-02-12T06:23:08;98046.25;;;1.13;59.84
8061;BME280;4073;42.626;25.386;2023-02-12T06:25:33;98046.50;;;1.18;59.97
8061;BME280;4073;42.626;25.386;2023-02-12T06:27:59;98041.47;;;1.23;58.93
8061;BME280;4073;42.626;25.386;2023-02-12T06:30:24;98048.81;;;1.34;57.35
8061;BME280;4073;42.626;25.386;2023-02-12T06:32:50;98045.06;;;1.49;56.18
8061;BME280;4073;42.626;25.386;2023-02-12T06:35:15;98053.25;;;1.61;56.79
8061;BME280;4073;42.626;25.386;2023-02-12T06:37:40;98044.38;;;1.62;55.01
8061;BME280;4073;42.626;25.386;2023-02-12T06:40:07;98035.47;;;1.69;57.16
8061;BME280;4073;42.626;25.386;2023-02-12T06:42:32;98048.91;;;1.81;59.22
8061;BME280;4073;42.626;25.386;2023-02-12T06:44:58;98053.59;;;1.85;60.69
8061;BME280;4073;42.626;25.386;2023-02-12T06:47:23;98051.91;;;1.71;61.53
8061;BME280;4073;42.626;25.386;2023-02-12T06:49:49;98058.78;;;1.66;62.51
8061;BME280;4073;42.626;25.386;2023-02-12T06:52:14;98070.63;;;1.49;62.28
8061;BME280;4073;42.626;25.386;2023-02-12T06:54:40;98071.91;;;1.59;61.95
8061;BME280;4073;42.626;25.386;2023-02-12T06:57:05;98078.19;;;1.58;62.84
8061;BME280;4073;42.626;25.386;2023-02-12T06:59:31;98068.94;;;1.69;62.23
8061;BME280;4073;42.626;25.386;2023-02-12T07:01:56;98062.66;;;1.70;62.61
8061;BME280;4073;42.626;25.386;2023-02-12T07:04:21;98053.31;;;1.67;61.87
8061;BME280;4073;42.626;25.386;2023-02-12T07:06:47;98066.59;;;1.87;61.45
8061;BME280;4073;42.626;25.386;2023-02-12T07:09:12;98071.31;;;1.98;61.40
8061;BME280;4073;42.626;25.386;2023-02-12T07:11:38;98079.09;;;2.12;61.37
8061;BME280;4073;42.626;25.386;2023-02-12T07:14:04;98016.94;;;1.90;60.77
8061;BME280;4073;42.626;25.386;2023-02-12T07:16:30;98072.91;;;2.39;59.87
8061;BME280;4073;42.626;25.386;2023-02-12T07:18:55;98083.50;;;2.52;59.43
8061;BME280;4073;42.626;25.386;2023-02-12T07:21:21;98086.59;;;2.62;59.94
8061;BME280;4073;42.626;25.386;2023-02-12T07:23:50;98081.31;;;2.69;60.09
8061;BME280;4073;42.626;25.386;2023-02-12T07:26:18;98084.56;;;2.71;59.91
8061;BME280;4073;42.626;25.386;2023-02-12T07:28:43;98070.53;;;2.64;60.37
8061;BME280;4073;42.626;25.386;2023-02-12T07:31:13;98075.19;;;2.62;60.14
8061;BME280;4073;42.626;25.386;2023-02-12T07:33:39;98064.63;;;2.62;60.20
8061;BME280;4073;42.626;25.386;2023-02-12T07:36:08;98076.84;;;2.69;60.45
8061;BME280;4073;42.626;25.386;2023-02-12T07:38:33;98074.44;;;2.81;60.68
8061;BME280;4073;42.626;25.386;2023-02-12T07:41:33;98075.69;;;2.98;60.61
8061;BME280;4073;42.626;25.386;2023-02-12T07:44:01;98078.50;;;3.23;59.92
8061;BME280;4073;42.626;25.386;2023-02-12T07:46:31;98085.00;;;3.53;59.25
8061;BME280;4073;42.626;25.386;2023-02-12T07:48:58;98074.22;;;3.74;58.27
8061;BME280;4073;42.626;25.386;2023-02-12T07:51:25;98057.91;;;3.77;57.95
8061;BME280;4073;42.626;25.386;2023-02-12T07:53:51;98071.91;;;3.97;57.16
8061;BME280;4073;42.626;25.386;2023-02-12T07:56:28;98066.78;;;4.15;57.05
8061;BME280;4073;42.626;25.386;2023-02-12T07:58:58;98059.75;;;4.40;56.83
8061;BME280;4073;42.626;25.386;2023-02-12T08:01:26;98061.22;;;4.67;55.43
8061;BME280;4073;42.626;25.386;2023-02-12T08:03:53;98064.00;;;4.78;53.68
8061;BME280;4073;42.626;25.386;2023-02-12T08:06:24;98073.28;;;4.94;53.38
8061;BME280;4073;42.626;25.386;2023-02-12T08:08:55;98065.94;;;5.20;52.32
8061;BME280;4073;42.626;25.386;2023-02-12T08:11:24;98074.06;;;5.50;50.78
8061;BME280;4073;42.626;25.386;2023-02-12T08:13:50;98069.50;;;5.82;49.57
8061;BME280;4073;42.626;25.386;2023-02-12T08:16:18;98072.84;;;5.95;48.18
8061;BME280;4073;42.626;25.386;2023-02-12T08:18:44;98076.03;;;6.04;46.56
8061;BME280;4073;42.626;25.386;2023-02-12T08:21:17;98074.75;;;6.24;46.38
8061;BME280;4073;42.626;25.386;2023-02-12T08:23:43;98085.72;;;6.46;46.34
8061;BME280;4073;42.626;25.386;2023-02-12T08:28:46;98088.34;;;6.82;46.07
8061;BME280;4073;42.626;25.386;2023-02-12T08:31:15;98104.69;;;6.97;45.30
8061;BME280;4073;42.626;25.386;2023-02-12T08:33:41;98085.34;;;6.90;45.77
8061;BME280;4073;42.626;25.386;2023-02-12T08:36:11;98090.81;;;6.95;45.70
8061;BME280;4073;42.626;25.386;2023-02-12T08:38:37;98085.25;;;6.67;46.03
8061;BME280;4073;42.626;25.386;2023-02-12T08:41:12;98094.22;;;6.54;45.69
8061;BME280;4073;42.626;25.386;2023-02-12T08:43:39;98095.91;;;6.49;45.77
8061;BME280;4073;42.626;25.386;2023-02-12T08:46:13;98103.78;;;6.55;46.00
8061;BME280;4073;42.626;25.386;2023-02-12T08:48:39;98102.63;;;6.69;45.57
8061;BME280;4073;42.626;25.386;2023-02-12T08:51:11;98121.84;;;6.83;44.89
8061;BME280;4073;42.626;25.386;2023-02-12T08:53:38;98121.22;;;6.99;44.92
8061;BME280;4073;42.626;25.386;2023-02-12T08:56:05;98124.72;;;7.11;44.57
8061;BME280;4073;42.626;25.386;2023-02-12T08:58:32;98117.88;;;7.44;44.00
8061;BME280;4073;42.626;25.386;2023-02-12T09:00:57;98118.56;;;8.55;41.65
8061;BME280;4073;42.626;25.386;2023-02-12T09:03:23;98126.03;;;9.87;39.17
8061;BME280;4073;42.626;25.386;2023-02-12T09:05:49;98121.03;;;9.90;38.26
8061;BME280;4073;42.626;25.386;2023-02-12T09:08:14;98131.69;;;9.74;37.50
8061;BME280;4073;42.626;25.386;2023-02-12T09:10:41;98140.41;;;9.53;38.47
8061;BME280;4073;42.626;25.386;2023-02-12T09:13:08;98141.56;;;10.06;37.56
8061;BME280;4073;42.626;25.386;2023-02-12T09:15:42;98145.28;;;10.60;36.00
8061;BME280;4073;42.626;25.386;2023-02-12T09:18:08;98147.94;;;11.03;35.31
8061;BME280;4073;42.626;25.386;2023-02-12T09:20:37;98150.13;;;11.33;34.74
8061;BME280;4073;42.626;25.386;2023-02-12T09:23:04;98143.75;;;11.39;34.08
8061;BME280;4073;42.626;25.386;2023-02-12T09:25:30;98155.09;;;11.19;34.45
8061;BME280;4073;42.626;25.386;2023-02-12T09:27:59;98151.47;;;11.09;34.73
8061;BME280;4073;42.626;25.386;2023-02-12T09:30:24;98148.50;;;10.84;34.86
8061;BME280;4073;42.626;25.386;2023-02-12T09:32:50;98137.56;;;10.64;34.94
8061;BME280;4073;42.626;25.386;2023-02-12T09:35:15;98160.31;;;9.95;36.42
8061;BME280;4073;42.626;25.386;2023-02-12T09:37:42;98157.09;;;9.60;37.20
8061;BME280;4073;42.626;25.386;2023-02-12T09:40:17;98146.81;;;10.18;36.37
8061;BME280;4073;42.626;25.386;2023-02-12T09:46:19;98143.88;;;11.22;34.50
8061;BME280;4073;42.626;25.386;2023-02-12T09:48:44;98144.59;;;10.70;35.26
8061;BME280;4073;42.626;25.386;2023-02-12T09:51:12;98128.84;;;9.97;36.23
8061;BME280;4073;42.626;25.386;2023-02-12T09:53:42;98146.75;;;9.63;36.23
8061;BME280;4073;42.626;25.386;2023-02-12T09:56:18;98149.22;;;10.36;35.21
8061;BME280;4073;42.626;25.386;2023-02-12T09:58:51;98147.44;;;11.33;34.28
8061;BME280;4073;42.626;25.386;2023-02-12T10:01:19;98152.53;;;12.24;32.51
8061;BME280;4073;42.626;25.386;2023-02-12T10:03:48;98144.41;;;13.12;31.72
8061;BME280;4073;42.626;25.386;2023-02-12T10:06:21;98141.03;;;13.62;30.39
8061;BME280;4073;42.626;25.386;2023-02-12T10:09:01;98153.66;;;13.96;28.88
8061;BME280;4073;42.626;25.386;2023-02-12T10:14:17;98155.50;;;14.56;28.35
8061;BME280;4073;42.626;25.386;2023-02-12T10:22:44;98156.34;;;14.01;28.91
8061;BME280;4073;42.626;25.386;2023-02-12T10:25:32;98154.41;;;13.27;29.83
8061;BME280;4073;42.626;25.386;2023-02-12T10:28:01;98155.34;;;12.95;30.43
8061;BME280;4073;42.626;25.386;2023-02-12T10:33:26;98156.59;;;13.55;29.79
8061;BME280;4073;42.626;25.386;2023-02-12T10:35:58;98157.44;;;13.65;29.28
8061;BME280;4073;42.626;25.386;2023-02-12T10:38:31;98153.41;;;13.78;29.03
8061;BME280;4073;42.626;25.386;2023-02-12T10:40:59;98176.47;;;13.39;29.42
8061;BME280;4073;42.626;25.386;2023-02-12T10:43:27;98179.31;;;13.12;30.56
8061;BME280;4073;42.626;25.386;2023-02-12T10:45:53;98171.13;;;13.64;29.77
8061;BME280;4073;42.626;25.386;2023-02-12T10:48:34;98177.84;;;14.11;28.31
8061;BME280;4073;42.626;25.386;2023-02-12T10:53:41;98198.88;;;13.02;30.09
8061;BME280;4073;42.626;25.386;2023-02-12T10:56:22;98208.59;;;13.09;29.78
8061;BME280;4073;42.626;25.386;2023-02-12T11:01:35;98202.63;;;11.87;31.79
8061;BME280;4073;42.626;25.386;2023-02-12T11:04:22;98224.94;;;11.44;31.80
8061;BME280;4073;42.626;25.386;2023-02-12T11:07:07;98232.97;;;11.44;32.25
8061;BME280;4073;42.626;25.386;2023-02-12T11:09:36;98218.03;;;11.48;32.03
8061;BME280;4073;42.626;25.386;2023-02-12T11:14:56;98229.44;;;10.19;33.91
8061;BME280;4073;42.626;25.386;2023-02-12T11:17:34;98224.47;;;10.28;35.09
8061;BME280;4073;42.626;25.386;2023-02-12T11:22:57;98230.59;;;9.79;35.99
8061;BME280;4073;42.626;25.386;2023-02-12T11:25:35;98233.38;;;9.56;35.61
8061;BME280;4073;42.626;25.386;2023-02-12T11:28:16;98236.38;;;9.59;35.97
8061;BME280;4073;42.626;25.386;2023-02-12T11:33:24;98232.59;;;9.44;36.69
8061;BME280;4073;42.626;25.386;2023-02-12T11:35:53;98240.22;;;9.24;37.33
8061;BME280;4073;42.626;25.386;2023-02-12T11:38:24;98241.00;;;9.36;37.05
8061;BME280;4073;42.626;25.386;2023-02-12T11:40:54;98228.41;;;9.48;37.17
8061;BME280;4073;42.626;25.386;2023-02-12T11:43:20;98222.59;;;9.23;37.31
8061;BME280;4073;42.626;25.386;2023-02-12T11:45:50;98231.53;;;9.17;37.48
8061;BME280;4073;42.626;25.386;2023-02-12T11:48:27;98222.97;;;9.71;36.60
8061;BME280;4073;42.626;25.386;2023-02-12T11:50:55;98233.00;;;10.08;35.60
8061;BME280;4073;42.626;25.386;2023-02-12T11:53:29;98237.69;;;10.34;35.36
8061;BME280;4073;42.626;25.386;2023-02-12T11:56:03;98241.91;;;10.47;35.76
8061;BME280;4073;42.626;25.386;2023-02-12T11:58:30;98243.63;;;10.75;35.50
8061;BME280;4073;42.626;25.386;2023-02-12T12:01:02;98230.38;;;10.85;34.32
8061;BME280;4073;42.626;25.386;2023-02-12T12:03:39;98243.38;;;10.76;35.05
8061;BME280;4073;42.626;25.386;2023-02-12T12:08:37;98227.34;;;10.21;35.64
8061;BME280;4073;42.626;25.386;2023-02-12T12:11:18;98231.69;;;10.44;35.30
8061;BME280;4073;42.626;25.386;2023-02-12T12:14:00;98240.09;;;10.36;35.68
8061;BME280;4073;42.626;25.386;2023-02-12T12:16:38;98238.22;;;10.53;35.57
8061;BME280;4073;42.626;25.386;2023-02-12T12:19:34;98242.28;;;10.56;35.48
8061;BME280;4073;42.626;25.386;2023-02-12T12:22:30;98241.28;;;10.78;34.92
8061;BME280;4073;42.626;25.386;2023-02-12T12:25:19;98243.09;;;10.94;34.08
8061;BME280;4073;42.626;25.386;2023-02-12T12:31:02;98254.19;;;11.03;33.56
8061;BME280;4073;42.626;25.386;2023-02-12T12:33:37;98247.44;;;11.00;33.83
8061;BME280;4073;42.626;25.386;2023-02-12T12:49:59;98284.56;;;10.75;34.63
8061;BME280;4073;42.626;25.386;2023-02-12T13:04:19;98304.09;;;9.53;37.65
8061;BME280;4073;42.626;25.386;2023-02-12T13:06:56;98303.84;;;9.55;38.26
8061;BME280;4073;42.626;25.386;2023-02-12T13:28:44;98327.81;;;8.35;39.51
8061;BME280;4073;42.626;25.386;2023-02-12T13:31:16;98333.59;;;8.32;42.44
8061;BME280;4073;42.626;25.386;2023-02-12T13:33:55;98341.97;;;8.35;40.30
8061;BME280;4073;42.626;25.386;2023-02-12T13:36:22;98341.75;;;8.37;40.25
8061;BME280;4073;42.626;25.386;2023-02-12T13:39:15;98343.25;;;8.56;40.71
8061;BME280;4073;42.626;25.386;2023-02-12T13:41:55;98340.69;;;8.38;40.68
8061;BME280;4073;42.626;25.386;2023-02-12T13:50:34;98356.91;;;8.07;41.34
8061;BME280;4073;42.626;25.386;2023-02-12T13:53:28;98375.19;;;7.73;42.53
8061;BME280;4073;42.626;25.386;2023-02-12T13:58:53;98373.91;;;7.94;42.95
8061;BME280;4073;42.626;25.386;2023-02-12T14:01:39;98382.00;;;7.99;42.95
8061;BME280;4073;42.626;25.386;2023-02-12T14:07:19;98392.66;;;7.69;43.27
8061;BME280;4073;42.626;25.386;2023-02-12T14:12:29;98397.75;;;7.35;44.78
8061;BME280;4073;42.626;25.386;2023-02-12T14:15:24;98402.13;;;7.29;45.82
8061;BME280;4073;42.626;25.386;2023-02-12T14:17:54;98374.75;;;7.04;46.75
8061;BME280;4073;42.626;25.386;2023-02-12T14:20:30;98408.69;;;7.09;47.30
8061;BME280;4073;42.626;25.386;2023-02-12T14:25:42;98413.72;;;6.92;48.48
8061;BME280;4073;42.626;25.386;2023-02-12T14:28:24;98424.44;;;6.86;49.47
8061;BME280;4073;42.626;25.386;2023-02-12T14:33:46;98439.78;;;6.84;50.52
8061;BME280;4073;42.626;25.386;2023-02-12T14:39:03;98449.28;;;6.73;51.12
8061;BME280;4073;42.626;25.386;2023-02-12T14:41:37;98455.25;;;6.62;51.26
8061;BME280;4073;42.626;25.386;2023-02-12T14:46:56;98460.13;;;6.72;51.30
8061;BME280;4073;42.626;25.386;2023-02-12T14:49:33;98463.97;;;6.76;50.64
8061;BME280;4073;42.626;25.386;2023-02-12T14:52:02;98466.63;;;6.76;49.87
8061;BME280;4073;42.626;25.386;2023-02-12T14:54:36;98471.31;;;6.80;50.31
8061;BME280;4073;42.626;25.386;2023-02-12T14:57:26;98474.38;;;6.77;49.62
8061;BME280;4073;42.626;25.386;2023-02-12T15:00:29;98481.09;;;6.80;49.68
8061;BME280;4073;42.626;25.386;2023-02-12T15:03:06;98488.81;;;6.63;50.20
8061;BME280;4073;42.626;25.386;2023-02-12T15:09:20;98492.78;;;6.48;50.51
8061;BME280;4073;42.626;25.386;2023-02-12T15:11:24;98496.84;;;6.50;50.72
8061;BME280;4073;42.626;25.386;2023-02-12T15:14:26;98506.22;;;6.59;50.58
8061;BME280;4073;42.626;25.386;2023-02-12T15:16:54;98508.06;;;6.52;50.86
8061;BME280;4073;42.626;25.386;2023-02-12T15:22:25;98517.06;;;6.58;51.40
8061;BME280;4073;42.626;25.386;2023-02-12T15:25:22;98524.41;;;6.56;51.57
8061;BME280;4073;42.626;25.386;2023-02-12T15:27:51;98515.47;;;6.44;52.08
8061;BME280;4073;42.626;25.386;2023-02-12T15:30:21;98529.78;;;6.49;52.12
8061;BME280;4073;42.626;25.386;2023-02-12T15:32:48;98537.75;;;6.49;52.36
8061;BME280;4073;42.626;25.386;2023-02-12T15:35:24;98537.75;;;6.49;53.51
8061;BME280;4073;42.626;25.386;2023-02-12T15:37:50;98547.72;;;6.54;55.58
8061;BME280;4073;42.626;25.386;2023-02-12T15:40:16;98544.84;;;6.55;54.48
8061;BME280;4073;42.626;25.386;2023-02-12T15:45:19;98544.56;;;6.32;53.85
8061;BME280;4073;42.626;25.386;2023-02-12T15:48:10;98563.97;;;6.33;55.63
8061;BME280;4073;42.626;25.386;2023-02-12T15:50:54;98568.94;;;6.16;55.05
8061;BME280;4073;42.626;25.386;2023-02-12T15:53:22;98575.13;;;6.04;55.65
8061;BME280;4073;42.626;25.386;2023-02-12T15:55:50;98584.34;;;5.88;55.78
8061;BME280;4073;42.626;25.386;2023-02-12T16:00:48;98595.34;;;5.92;57.94
8061;BME280;4073;42.626;25.386;2023-02-12T16:03:26;98584.94;;;5.90;58.55
8061;BME280;4073;42.626;25.386;2023-02-12T16:05:55;98592.91;;;5.90;57.01
8061;BME280;4073;42.626;25.386;2023-02-12T16:08:22;98604.94;;;5.93;59.68
8061;BME280;4073;42.626;25.386;2023-02-12T16:10:51;98606.00;;;5.85;59.89
8061;BME280;4073;42.626;25.386;2023-02-12T16:13:23;98603.91;;;5.74;58.83
8061;BME280;4073;42.626;25.386;2023-02-12T16:16:26;98625.38;;;5.73;59.17
8061;BME280;4073;42.626;25.386;2023-02-12T16:22:05;98629.84;;;5.72;59.98
8061;BME280;4073;42.626;25.386;2023-02-12T16:24:34;98649.66;;;5.63;59.79